createdAt,value
2023-02-02T00:01:23.960Z,9.23
2023-02-02T00:03:51.064Z,9.26
2023-02-02T00:06:22.152Z,9.29
2023-02-02T00:08:48.947Z,9.31
2023-02-02T00:11:16.588Z,9.25
2023-02-02T00:13:43.170Z,9.27
2023-02-02T00:16:28.504Z,9.24
2023-02-02T00:19:00.622Z,9.20
2023-02-02T00:21:27.595Z,9.20
2023-02-02T00:23:54.034Z,9.25
2023-02-02T00:26:21.517Z,9.23
2023-02-02T00:28:48.459Z,9.19
2023-02-02T00:31:14.906Z,9.19
2023-02-02T00:33:45.631Z,9.16
2023-02-02T00:36:12.105Z,9.16
2023-02-02T00:38:38.470Z,9.15
2023-02-02T00:41:05.323Z,9.17
2023-02-02T00:43:31.705Z,9.18
2023-02-02T00:45:58.361Z,9.21
2023-02-02T00:48:25.885Z,9.20
2023-02-02T00:50:53.308Z,9.14
2023-02-02T00:53:20.302Z,9.15
2023-02-02T00:55:46.739Z,9.16
2023-02-02T00:58:13.133Z,9.18
2023-02-02T01:00:39.858Z,9.19
2023-02-02T01:03:07.037Z,9.19
2023-02-02T01:05:34.492Z,9.20
2023-02-02T01:08:01.164Z,9.23
2023-02-02T01:10:27.599Z,9.18
2023-02-02T01:12:54.385Z,9.20
2023-02-02T01:15:20.881Z,9.18
2023-02-02T01:17:47.300Z,9.19
2023-02-02T01:20:19.955Z,9.19
2023-02-02T01:22:47.159Z,9.22
2023-02-02T01:25:13.808Z,9.20
2023-02-02T01:27:40.308Z,9.17
2023-02-02T01:30:07.515Z,9.18
2023-02-02T01:32:33.948Z,9.20
2023-02-02T01:35:00.419Z,9.25
2023-02-02T01:37:26.796Z,9.24
2023-02-02T01:39:53.176Z,9.22
2023-02-02T01:42:22.167Z,9.25
2023-02-02T01:45:14.347Z,9.25
2023-02-02T01:47:46.163Z,9.24
2023-02-02T01:50:15.193Z,9.27
2023-02-02T01:52:45.930Z,9.29
2023-02-02T01:55:16.735Z,9.28
2023-02-02T01:57:43.089Z,9.30
2023-02-02T02:00:13.510Z,9.21
2023-02-02T02:02:43.154Z,9.21
2023-02-02T02:05:09.961Z,9.16
2023-02-02T02:07:38.785Z,9.15
2023-02-02T02:10:05.676Z,9.11
2023-02-02T02:12:32.144Z,9.05
2023-02-02T02:15:16.858Z,9.08
2023-02-02T02:17:52.205Z,9.06
2023-02-02T02:20:50.703Z,9.02
2023-02-02T02:23:35.532Z,8.98
2023-02-02T02:26:20.506Z,8.96
2023-02-02T02:28:55.656Z,8.95
2023-02-02T02:31:58.889Z,8.93
2023-02-02T02:34:44.135Z,8.93
2023-02-02T02:37:47.329Z,8.92
2023-02-02T02:40:37.049Z,8.87
2023-02-02T02:43:16.120Z,8.91
2023-02-02T02:45:44.620Z,8.90
2023-02-02T02:48:11.569Z,8.90
2023-02-02T02:50:38.303Z,8.94
2023-02-02T02:53:31.027Z,8.93
2023-02-02T02:56:14.781Z,8.89
2023-02-02T02:59:10.946Z,8.86
2023-02-02T03:01:54.586Z,8.88
2023-02-02T03:05:00.500Z,8.89
2023-02-02T03:07:38.317Z,8.88
2023-02-02T03:10:07.667Z,8.87
2023-02-02T03:12:34.367Z,8.88
2023-02-02T03:15:05.561Z,8.89
2023-02-02T03:17:31.992Z,8.88
2023-02-02T03:19:58.397Z,8.89
2023-02-02T03:22:24.836Z,8.90
2023-02-02T03:24:51.249Z,8.89
2023-02-02T03:27:17.756Z,8.91
2023-02-02T03:29:44.238Z,8.94
2023-02-02T03:32:10.879Z,8.94
2023-02-02T03:34:37.269Z,8.91
2023-02-02T03:37:03.731Z,8.91
2023-02-02T03:39:30.147Z,8.91
2023-02-02T03:41:56.549Z,8.88
2023-02-02T03:44:22.941Z,8.90
2023-02-02T03:46:53.663Z,8.92
2023-02-02T03:49:20.824Z,8.91
2023-02-02T03:51:47.533Z,8.86
2023-02-02T03:54:14.796Z,8.89
2023-02-02T03:56:41.197Z,8.86
2023-02-02T03:59:07.629Z,8.86
2023-02-02T04:01:34.280Z,8.76
2023-02-02T04:04:00.828Z,8.77
2023-02-02T04:06:27.304Z,8.78
2023-02-02T04:08:53.737Z,8.82
2023-02-02T04:11:20.152Z,8.83
2023-02-02T04:13:46.597Z,8.77
2023-02-02T04:16:13.057Z,8.74
2023-02-02T04:18:39.490Z,8.74
2023-02-02T04:21:07.651Z,8.69
2023-02-02T04:23:34.376Z,8.66
2023-02-02T04:26:01.119Z,8.66
2023-02-02T04:28:28.385Z,8.62
2023-02-02T04:30:56.148Z,8.62
2023-02-02T04:33:24.254Z,8.58
2023-02-02T04:35:51.168Z,8.55
2023-02-02T04:38:17.656Z,8.50
2023-02-02T04:40:47.018Z,8.51
2023-02-02T04:43:14.027Z,8.47
2023-02-02T04:45:40.620Z,8.46
2023-02-02T04:48:07.063Z,8.43
2023-02-02T04:50:33.650Z,8.43
2023-02-02T04:53:00.204Z,8.43
2023-02-02T04:55:26.863Z,8.43
2023-02-02T04:57:53.451Z,8.42
2023-02-02T05:00:20.227Z,8.38
2023-02-02T05:02:46.670Z,8.39
2023-02-02T05:05:14.273Z,8.36
2023-02-02T05:07:40.910Z,8.29
2023-02-02T05:10:08.949Z,8.30
2023-02-02T05:12:35.661Z,8.29
2023-02-02T05:15:03.495Z,8.30
2023-02-02T05:17:30.044Z,8.31
2023-02-02T05:19:56.588Z,8.33
2023-02-02T05:22:23.018Z,8.35
2023-02-02T05:24:49.491Z,8.34
2023-02-02T05:27:15.916Z,8.34
2023-02-02T05:29:42.300Z,8.37
2023-02-02T05:32:08.825Z,8.39
2023-02-02T05:34:35.270Z,8.41
2023-02-02T05:37:01.667Z,8.41
2023-02-02T05:39:28.197Z,8.40
2023-02-02T05:41:54.589Z,8.42
2023-02-02T05:44:21.142Z,8.42
2023-02-02T05:46:47.628Z,8.43
2023-02-02T05:49:14.422Z,8.41
2023-02-02T05:51:44.797Z,8.44
2023-02-02T05:54:11.174Z,8.42
2023-02-02T05:56:38.021Z,8.44
2023-02-02T05:59:07.378Z,8.44
2023-02-02T06:01:34.269Z,8.45
2023-02-02T06:04:00.752Z,8.44
2023-02-02T06:06:27.495Z,8.46
2023-02-02T06:08:53.883Z,8.49
2023-02-02T06:11:20.366Z,8.50
2023-02-02T06:13:46.999Z,8.50
2023-02-02T06:16:13.949Z,8.52
2023-02-02T06:18:40.460Z,8.55
2023-02-02T06:21:07.202Z,8.56
2023-02-02T06:23:34.675Z,8.60
2023-02-02T06:26:03.420Z,8.60
2023-02-02T06:28:31.422Z,8.62
2023-02-02T06:31:04.654Z,8.63
2023-02-02T06:33:31.251Z,8.63
2023-02-02T06:36:02.168Z,8.66
2023-02-02T06:38:28.860Z,8.66
2023-02-02T06:40:55.977Z,8.69
2023-02-02T06:43:22.397Z,8.71
2023-02-02T06:45:48.789Z,8.73
2023-02-02T06:48:15.204Z,8.74
2023-02-02T06:50:41.672Z,8.74
2023-02-02T06:53:08.078Z,8.77
2023-02-02T06:55:34.605Z,8.80
2023-02-02T06:58:01.680Z,8.82
2023-02-02T07:00:29.853Z,8.84
2023-02-02T07:02:56.490Z,8.85
2023-02-02T07:05:24.230Z,8.88
2023-02-02T07:07:51.298Z,8.89
2023-02-02T07:11:14.056Z,8.91
2023-02-02T07:13:06.975Z,8.92
2023-02-02T07:15:34.475Z,8.91
2023-02-02T07:18:01.198Z,8.93
2023-02-02T07:20:27.898Z,8.95
2023-02-02T07:22:54.290Z,8.98
2023-02-02T07:25:20.655Z,8.97
2023-02-02T07:27:47.900Z,8.97
2023-02-02T07:30:15.326Z,8.98
2023-02-02T07:32:46.683Z,9.00
2023-02-02T07:35:13.067Z,8.97
2023-02-02T07:37:40.138Z,8.99
2023-02-02T07:40:07.708Z,9.00
2023-02-02T07:42:34.137Z,8.97
2023-02-02T07:45:01.207Z,9.00
2023-02-02T07:47:47.543Z,9.03
2023-02-02T07:50:13.959Z,9.05
2023-02-02T07:52:40.436Z,9.06
2023-02-02T07:55:14.503Z,9.09
2023-02-02T07:57:41.417Z,9.10
2023-02-02T08:00:09.268Z,9.09
2023-02-02T08:02:35.851Z,9.11
2023-02-02T08:05:02.336Z,9.14
2023-02-02T08:07:28.768Z,9.12
2023-02-02T08:09:55.131Z,9.16
2023-02-02T08:12:24.811Z,9.17
2023-02-02T08:14:52.026Z,9.16
2023-02-02T08:17:18.720Z,9.15
2023-02-02T08:19:45.144Z,9.15
2023-02-02T08:22:11.629Z,9.16
2023-02-02T08:24:40.504Z,9.15
2023-02-02T08:27:08.237Z,9.16
2023-02-02T08:29:36.611Z,9.19
2023-02-02T08:32:03.678Z,9.20
2023-02-02T08:34:30.229Z,9.21
2023-02-02T08:36:56.802Z,9.24
2023-02-02T08:39:23.285Z,9.28
2023-02-02T08:41:49.794Z,9.28
2023-02-02T08:44:16.371Z,9.32
2023-02-02T08:46:43.336Z,9.31
2023-02-02T08:49:11.978Z,9.32
2023-02-02T08:51:38.523Z,9.32
2023-02-02T08:54:05.029Z,9.32
2023-02-02T08:56:31.491Z,9.34
2023-02-02T08:58:58.731Z,9.38
2023-02-02T09:01:27.828Z,9.39
2023-02-02T09:03:59.179Z,9.40
2023-02-02T09:06:37.520Z,9.41
2023-02-02T09:09:06.510Z,9.42
2023-02-02T09:11:33.017Z,9.43
2023-02-02T09:14:02.054Z,9.45
2023-02-02T09:16:29.084Z,9.43
2023-02-02T09:18:56.270Z,9.45
2023-02-02T09:21:23.366Z,9.43
2023-02-02T09:23:51.531Z,9.41
2023-02-02T09:26:18.008Z,9.42
2023-02-02T09:28:47.558Z,9.45
2023-02-02T09:31:14.909Z,9.46
2023-02-02T09:33:42.305Z,9.48
2023-02-02T09:36:11.457Z,9.51
2023-02-02T09:38:39.267Z,9.51
2023-02-02T09:41:27.541Z,9.51
2023-02-02T09:44:16.473Z,9.51
2023-02-02T09:47:20.448Z,9.52
2023-02-02T09:49:56.393Z,9.49
2023-02-02T09:52:30.346Z,9.48
2023-02-02T09:55:04.772Z,9.42
2023-02-02T09:57:47.080Z,9.38
2023-02-02T10:00:38.294Z,9.35
2023-02-02T10:03:14.027Z,9.34
2023-02-02T10:06:13.769Z,9.29
2023-02-02T10:08:49.027Z,9.29
2023-02-02T10:11:31.057Z,9.31
2023-02-02T10:14:03.104Z,9.37
2023-02-02T10:16:30.857Z,9.39
2023-02-02T10:19:04.615Z,9.42
2023-02-02T10:22:09.622Z,9.45
2023-02-02T10:24:37.056Z,9.48
2023-02-02T10:27:07.122Z,9.55
2023-02-02T10:29:58.439Z,9.63
2023-02-02T10:32:28.101Z,9.73
2023-02-02T10:35:14.464Z,9.78
2023-02-02T10:38:22.370Z,9.81
2023-02-02T10:41:00.924Z,9.91
2023-02-02T10:43:45.700Z,10.00
2023-02-02T10:46:26.111Z,10.23
2023-02-02T10:49:09.926Z,10.48
2023-02-02T10:51:36.492Z,10.73
2023-02-02T10:54:08.998Z,10.79
2023-02-02T10:56:40.493Z,10.90
2023-02-02T10:59:13.150Z,10.84
2023-02-02T11:01:39.631Z,10.75
2023-02-02T11:04:25.031Z,10.67
2023-02-02T11:06:51.883Z,10.62
2023-02-02T11:09:23.133Z,10.57
2023-02-02T11:11:53.204Z,10.57
2023-02-02T11:14:45.432Z,10.53
2023-02-02T11:17:31.027Z,10.44
2023-02-02T11:19:57.732Z,10.44
2023-02-02T11:22:30.284Z,10.49
2023-02-02T11:25:00.246Z,10.43
2023-02-02T11:27:31.666Z,10.38
2023-02-02T11:29:59.909Z,10.44
2023-02-02T11:32:29.507Z,10.61
2023-02-02T11:35:18.236Z,10.68
2023-02-02T11:37:58.609Z,10.78
2023-02-02T11:40:36.940Z,10.86
2023-02-02T11:43:17.230Z,11.04
2023-02-02T11:45:45.313Z,11.18
2023-02-02T11:48:18.355Z,11.26
2023-02-02T11:50:53.780Z,11.26
2023-02-02T11:53:27.160Z,11.23
2023-02-02T11:55:55.287Z,11.13
2023-02-02T11:58:27.921Z,11.15
2023-02-02T12:01:01.726Z,11.18
2023-02-02T12:03:36.783Z,11.12
2023-02-02T12:06:33.458Z,11.00
2023-02-02T12:09:07.155Z,10.89
2023-02-02T12:11:48.262Z,10.89
2023-02-02T12:14:35.122Z,10.85
2023-02-02T12:17:13.628Z,10.81
2023-02-02T12:20:02.719Z,10.69
2023-02-02T12:22:44.395Z,10.56
2023-02-02T12:25:26.959Z,10.63
2023-02-02T12:27:59.641Z,10.70
2023-02-02T12:31:00.074Z,10.67
2023-02-02T12:33:37.885Z,10.66
2023-02-02T12:36:37.961Z,10.59
2023-02-02T12:39:32.532Z,10.59
2023-02-02T12:42:08.957Z,10.62
2023-02-02T12:44:42.876Z,10.64
2023-02-02T12:47:21.353Z,10.64
2023-02-02T12:50:08.186Z,10.70
2023-02-02T12:52:47.057Z,10.79
2023-02-02T12:55:53.867Z,10.86
2023-02-02T12:58:36.699Z,10.90
2023-02-02T13:01:03.221Z,10.94
2023-02-02T13:03:59.603Z,10.89
2023-02-02T13:07:03.047Z,10.83
2023-02-02T13:09:48.438Z,10.91
2023-02-02T13:12:18.637Z,10.91
2023-02-02T13:15:07.631Z,10.83
2023-02-02T13:17:41.612Z,10.82
2023-02-02T13:20:36.106Z,10.82
2023-02-02T13:23:14.544Z,10.88
2023-02-02T13:25:47.524Z,10.91
2023-02-02T13:28:24.794Z,10.97
2023-02-02T13:30:52.746Z,10.99
2023-02-02T13:33:26.137Z,11.01
2023-02-02T13:35:57.959Z,10.97
2023-02-02T13:38:27.444Z,11.00
2023-02-02T13:40:55.946Z,11.00
2023-02-02T13:43:46.997Z,10.95
2023-02-02T13:46:31.614Z,10.91
2023-02-02T13:49:10.929Z,10.88
2023-02-02T13:51:40.336Z,10.89
2023-02-02T13:54:25.283Z,10.81
2023-02-02T13:56:58.903Z,10.87
2023-02-02T13:59:40.261Z,10.83
2023-02-02T14:02:20.733Z,10.84
2023-02-02T14:04:54.904Z,10.87
2023-02-02T14:07:42.810Z,10.88
2023-02-02T14:10:31.689Z,10.84
2023-02-02T14:13:29.867Z,10.87
2023-02-02T14:15:57.959Z,10.84
2023-02-02T14:18:52.226Z,10.80
2023-02-02T14:21:33.924Z,10.78
2023-02-02T14:24:24.633Z,10.78
2023-02-02T14:26:52.835Z,10.78
2023-02-02T14:29:31.785Z,10.78
2023-02-02T14:32:20.903Z,10.82
2023-02-02T14:34:49.360Z,10.81
2023-02-02T14:37:21.704Z,10.84
2023-02-02T14:40:07.181Z,10.82
2023-02-02T14:42:58.056Z,10.92
2023-02-02T14:45:32.566Z,10.99
2023-02-02T14:48:18.536Z,11.02
2023-02-02T14:50:51.632Z,11.02
2023-02-02T14:53:23.713Z,11.05
2023-02-02T14:55:58.014Z,11.09
2023-02-02T14:58:33.993Z,11.13
2023-02-02T15:01:24.924Z,11.15
2023-02-02T15:03:57.302Z,11.19
2023-02-02T15:06:33.008Z,11.16
2023-02-02T15:09:26.637Z,11.18
2023-02-02T15:12:01.296Z,11.13
2023-02-02T15:14:46.887Z,11.09
2023-02-02T15:17:31.417Z,11.07
2023-02-02T15:20:21.058Z,11.06
2023-02-02T15:22:47.590Z,11.05
2023-02-02T15:25:51.610Z,11.01
2023-02-02T15:28:35.720Z,11.01
2023-02-02T15:31:11.363Z,10.99
2023-02-02T15:33:41.504Z,10.95
2023-02-02T15:36:28.321Z,10.93
2023-02-02T15:38:59.666Z,10.95
2023-02-02T15:41:33.985Z,11.00
2023-02-02T15:44:00.950Z,11.10
2023-02-02T15:46:34.258Z,11.24
2023-02-02T15:49:33.399Z,11.27
2023-02-02T15:52:09.994Z,11.29
2023-02-02T15:54:39.623Z,11.33
2023-02-02T15:57:23.914Z,11.29
2023-02-02T15:59:50.535Z,11.30
2023-02-02T16:02:40.843Z,11.27
2023-02-02T16:05:39.557Z,11.19
2023-02-02T16:08:14.025Z,11.15
2023-02-02T16:10:40.477Z,11.13
2023-02-02T16:13:06.995Z,11.07
2023-02-02T16:15:33.520Z,11.09
2023-02-02T16:18:02.196Z,11.08
2023-02-02T16:20:33.058Z,11.07
2023-02-02T16:23:02.231Z,11.04
2023-02-02T16:25:39.889Z,11.02
2023-02-02T16:28:06.551Z,10.96
2023-02-02T16:30:36.967Z,10.97
2023-02-02T16:33:39.261Z,10.90
2023-02-02T16:36:29.820Z,10.85
2023-02-02T16:38:58.279Z,10.84
2023-02-02T16:41:27.872Z,10.84
2023-02-02T16:43:54.780Z,10.83
2023-02-02T16:46:57.314Z,10.78
2023-02-02T16:49:26.622Z,10.78
2023-02-02T16:52:19.922Z,10.73
2023-02-02T16:54:56.990Z,10.71
2023-02-02T16:57:27.378Z,10.71
2023-02-02T16:59:57.384Z,10.70
2023-02-02T17:02:38.502Z,10.70
2023-02-02T17:05:07.768Z,10.68
2023-02-02T17:07:37.154Z,10.68
2023-02-02T17:10:14.644Z,10.68
2023-02-02T17:12:41.110Z,10.65
2023-02-02T17:15:16.476Z,10.64
2023-02-02T17:17:48.551Z,10.66
2023-02-02T17:20:19.248Z,10.63
2023-02-02T17:22:48.980Z,10.65
2023-02-02T17:25:17.850Z,10.64
2023-02-02T17:27:45.232Z,10.61
2023-02-02T17:30:17.519Z,10.61
2023-02-02T17:32:43.990Z,10.62
2023-02-02T17:35:22.384Z,10.63
2023-02-02T17:37:49.540Z,10.63
2023-02-02T17:40:17.429Z,10.64
2023-02-02T17:42:45.647Z,10.63
2023-02-02T17:45:23.017Z,10.62
2023-02-02T17:47:50.999Z,10.62
2023-02-02T17:50:17.783Z,10.60
2023-02-02T17:52:45.780Z,10.59
2023-02-02T17:55:20.116Z,10.59
2023-02-02T17:57:47.386Z,10.55
2023-02-02T18:00:14.992Z,10.55
2023-02-02T18:02:41.540Z,10.53
2023-02-02T18:05:08.448Z,10.54
2023-02-02T18:07:34.905Z,10.56
2023-02-02T18:10:01.331Z,10.53
2023-02-02T18:12:28.175Z,10.53
2023-02-02T18:14:54.605Z,10.48
2023-02-02T18:17:21.184Z,10.44
2023-02-02T18:19:51.085Z,10.46
2023-02-02T18:22:18.381Z,10.49
2023-02-02T18:24:44.979Z,10.50
2023-02-02T18:27:11.415Z,10.50
2023-02-02T18:29:37.835Z,10.45
2023-02-02T18:32:04.316Z,10.48
2023-02-02T18:34:32.821Z,10.49
2023-02-02T18:36:59.588Z,10.48
2023-02-02T18:39:26.430Z,10.50
2023-02-02T18:41:53.048Z,10.53
2023-02-02T18:44:19.795Z,10.53
2023-02-02T18:46:46.337Z,10.53
2023-02-02T18:49:12.770Z,10.53
2023-02-02T18:51:39.356Z,10.55
2023-02-02T18:54:05.750Z,10.55
2023-02-02T18:56:32.480Z,10.55
2023-02-02T18:58:59.541Z,10.52
2023-02-02T19:01:26.530Z,10.53
2023-02-02T19:03:55.299Z,10.52
2023-02-02T19:06:41.328Z,10.52
2023-02-02T19:09:08.466Z,10.52
2023-02-02T19:11:39.192Z,10.53
2023-02-02T19:14:12.448Z,10.51
2023-02-02T19:16:39.359Z,10.50
2023-02-02T19:19:22.599Z,10.54
2023-02-02T19:21:57.858Z,10.54
2023-02-02T19:24:26.813Z,10.54
2023-02-02T19:26:53.936Z,10.55
2023-02-02T19:29:25.630Z,10.57
2023-02-02T19:32:07.439Z,10.56
2023-02-02T19:34:34.318Z,10.55
2023-02-02T19:37:21.507Z,10.55
2023-02-02T19:39:47.931Z,10.53
2023-02-02T19:42:14.297Z,10.52
2023-02-02T19:44:41.964Z,10.49
2023-02-02T19:47:21.461Z,10.51
2023-02-02T19:49:47.900Z,10.52
2023-02-02T19:52:22.530Z,10.54
2023-02-02T19:54:49.650Z,10.51
2023-02-02T19:57:21.251Z,10.53
2023-02-02T19:59:50.159Z,10.53
2023-02-02T20:02:51.853Z,10.54
2023-02-02T20:05:21.228Z,10.54
2023-02-02T20:07:55.676Z,10.54
2023-02-02T20:10:37.974Z,10.46
2023-02-02T20:13:18.505Z,10.51
2023-02-02T20:15:45.346Z,10.49
2023-02-02T20:18:26.276Z,10.51
2023-02-02T20:20:55.428Z,10.54
2023-02-02T20:23:29.849Z,10.54
2023-02-02T20:25:58.022Z,10.57
2023-02-02T20:28:30.180Z,10.57
2023-02-02T20:30:56.664Z,10.55
2023-02-02T20:33:24.786Z,10.54
2023-02-02T20:35:51.250Z,10.58
2023-02-02T20:38:28.528Z,10.59
2023-02-02T20:40:56.509Z,10.59
2023-02-02T20:43:22.930Z,10.55
2023-02-02T20:45:51.040Z,10.50
2023-02-02T20:48:17.727Z,10.45
2023-02-02T20:50:46.638Z,10.43
2023-02-02T20:53:16.381Z,10.40
2023-02-02T20:55:44.642Z,10.40
2023-02-02T20:58:11.536Z,10.36
2023-02-02T21:00:38.549Z,10.37
2023-02-02T21:03:05.072Z,10.33
2023-02-02T21:05:31.572Z,10.34
2023-02-02T21:07:58.029Z,10.30
2023-02-02T21:10:26.196Z,10.27
2023-02-02T21:12:52.942Z,10.25
2023-02-02T21:15:19.492Z,10.19
2023-02-02T21:17:45.925Z,10.18
2023-02-02T21:20:14.816Z,10.17
2023-02-02T21:22:41.331Z,10.14
2023-02-02T21:25:08.786Z,10.12
2023-02-02T21:27:35.770Z,10.09
2023-02-02T21:30:02.382Z,10.09
2023-02-02T21:32:28.809Z,10.07
2023-02-02T21:34:55.241Z,10.05
2023-02-02T21:37:21.745Z,10.03
2023-02-02T21:39:49.492Z,10.03
2023-02-02T21:42:18.803Z,10.03
2023-02-02T21:44:49.701Z,10.02
2023-02-02T21:47:34.812Z,10.05
2023-02-02T21:50:13.804Z,10.05
2023-02-02T21:52:40.343Z,10.05
2023-02-02T21:55:35.491Z,10.06
2023-02-02T21:58:22.487Z,10.05
2023-02-02T22:00:50.075Z,10.08
2023-02-02T22:03:25.953Z,10.08
2023-02-02T22:05:53.599Z,10.11
2023-02-02T22:08:25.205Z,10.09
2023-02-02T22:10:51.768Z,10.14
2023-02-02T22:13:24.806Z,10.18
2023-02-02T22:15:53.094Z,10.14
2023-02-02T22:18:21.645Z,10.18
2023-02-02T22:20:50.600Z,10.19
2023-02-02T22:23:21.540Z,10.18
2023-02-02T22:25:49.754Z,10.18
2023-02-02T22:28:16.156Z,10.15
2023-02-02T22:30:42.887Z,10.17
2023-02-02T22:33:11.383Z,10.14
2023-02-02T22:35:38.112Z,10.17
2023-02-02T22:38:05.413Z,10.13
2023-02-02T22:40:31.825Z,10.12
2023-02-02T22:43:00.261Z,10.06
2023-02-02T22:45:27.165Z,10.02
2023-02-02T22:47:54.126Z,10.05
2023-02-02T22:50:23.349Z,10.07
2023-02-02T22:52:49.941Z,10.03
2023-02-02T22:55:17.240Z,9.99
2023-02-02T22:57:44.077Z,9.96
2023-02-02T23:00:13.852Z,9.96
2023-02-02T23:02:41.623Z,9.92
2023-02-02T23:05:10.350Z,9.90
2023-02-02T23:07:36.982Z,9.84
2023-02-02T23:10:04.144Z,9.88
2023-02-02T23:12:30.890Z,9.88
2023-02-02T23:14:57.254Z,9.90
2023-02-02T23:17:23.709Z,9.92
2023-02-02T23:19:50.274Z,9.89
2023-02-02T23:22:16.723Z,9.92
2023-02-02T23:24:44.412Z,9.87
2023-02-02T23:27:12.912Z,9.91
2023-02-02T23:29:39.807Z,9.87
2023-02-02T23:32:07.127Z,9.86
2023-02-02T23:34:33.700Z,9.88
2023-02-02T23:37:00.153Z,9.90
2023-02-02T23:39:26.527Z,9.87
2023-02-02T23:41:53.031Z,9.85
2023-02-02T23:44:19.441Z,9.88
2023-02-02T23:46:46.241Z,9.87
2023-02-02T23:49:13.019Z,9.89
2023-02-02T23:51:39.797Z,9.89
2023-02-02T23:54:06.537Z,9.92
2023-02-02T23:56:33.208Z,9.93
2023-02-02T23:58:59.586Z,9.92
